KCOT

Details ICAO KCOT (COT)
Name COTULLA LASALLE CO
Region United States
Timezone America/Chicago (UTC-5.0)
Plans Departing 3
Arriving 2
Stats Elevation 474 ft / 144 m (AMSL)
Location 28.456694° -99.218335°
Runways 1
Magnetic Variation 4.583° E
Sunrise 2018-05-27 11:42:28 UTC / 2018-05-27 06:42:28 Local
Sunset 2018-05-28 01:28:33 UTC / 2018-05-27 20:28:33 Local
Advertisement - Login to hide

Runways

ID Width Length Bearing (true) Bearing (mag) Surface Threshold Offset Overrun Length
13 75 ft / 23 m 5,010 ft / 1,527 m 134.66° 130.08° Asphalt 0 ft / 0 m 0 ft / 0 m
31 75 ft / 23 m 5,010 ft / 1,527 m 314.66° 310.08° Asphalt 0 ft / 0 m 0 ft / 0 m

Map

Weather


0- 5 10 15 20 25 30 35+ Temperature / ° C

Clouds and Precipitation
Forecast for 2018-05-27 18:00 UTC. Updated 8 minutes ago

Ground ~20,000 ft ~40,000 ft Winds

METAR

KCOT 271653Z AUTO 16009G15KT 10SM CLR 34/19 A2981 RMK AO2 SLP086 T03390194

TAF

Not found

Frequencies

Recorded 134.07 MHz ASOS
Unicom 122.70 MHz CTAF/UNICOM
Warning: Do not use this data for real-world aviation or navigation. No guarantee of current accuracy is given.